Time,TemperatureF,DewpointF,PressureIn,WindDirection,WindDirectionDegrees,WindSpeedMPH,WindSpeedGustMPH,Humidity,HourlyPrecipIn,Conditions,Clouds,dailyrainin,SoftwareType,DateUTC
2013-04-01 00:04:00,67.9,60.3,30.00,North,-999,-999.0,-999.0,77,0.00,,,0.00,WSDL version 420,2013-04-01 04:04:00,
2013-04-01 00:09:00,67.8,60.3,29.97,North,-999,-999.0,-999.0,77,0.00,,,0.00,WSDL version 420,2013-04-01 04:09:00,
2013-04-01 00:14:00,67.6,60.4,29.97,North,-999,-999.0,-999.0,78,0.00,,,0.00,WSDL version 420,2013-04-01 04:14:00,
2013-04-01 00:19:00,67.6,60.5,29.97,North,-999,-999.0,-999.0,78,0.00,,,0.00,WSDL version 420,2013-04-01 04:19:00,
2013-04-01 00:24:00,67.5,60.4,30.03,North,-999,-999.0,-999.0,78,0.00,,,0.00,WSDL version 420,2013-04-01 04:24:00,
2013-04-01 00:34:00,67.3,60.3,30.03,North,-999,-999.0,-999.0,78,0.00,,,0.00,WSDL version 420,2013-04-01 04:34:00,
2013-04-01 00:39:00,67.1,60.4,30.00,North,-999,-999.0,-999.0,79,0.00,,,0.00,WSDL version 420,2013-04-01 04:39:00,
2013-04-01 00:44:00,67.1,60.4,30.00,North,-999,-999.0,-999.0,79,0.00,,,0.00,WSDL version 420,2013-04-01 04:44:00,
2013-04-01 00:54:00,66.9,60.2,30.00,North,-999,-999.0,-999.0,79,0.00,,,0.00,WSDL version 420,2013-04-01 04:54:00,
2013-04-01 00:59:00,66.9,60.3,30.00,North,-999,-999.0,-999.0,80,0.00,,,0.00,WSDL version 420,2013-04-01 04:59:00,
2013-04-01 01:04:00,66.9,60.6,30.00,North,-999,-999.0,-999.0,80,0.00,,,0.00,WSDL version 420,2013-04-01 05:04:00,
2013-04-01 01:09:00,66.9,60.6,30.00,North,-999,-999.0,-999.0,80,0.00,,,0.00,WSDL version 420,2013-04-01 05:09:00,
2013-04-01 01:14:00,66.9,60.6,30.00,North,-999,-999.0,-999.0,80,0.00,,,0.00,WSDL version 420,2013-04-01 05:14:00,
2013-04-01 01:19:00,66.9,60.5,30.00,North,-999,-999.0,-999.0,80,0.00,,,0.00,WSDL version 420,2013-04-01 05:19:00,
2013-04-01 01:24:00,66.7,60.3,30.00,North,-999,-999.0,-999.0,80,0.00,,,0.00,WSDL version 420,2013-04-01 05:24:00,
2013-04-01 01:29:00,66.5,60.1,30.00,North,-999,-999.0,-999.0,80,0.00,,,0.00,WSDL version 420,2013-04-01 05:29:00,
2013-04-01 01:34:00,66.4,60.0,30.00,North,-999,-999.0,-999.0,80,0.00,,,0.00,WSDL version 420,2013-04-01 05:34:00,
2013-04-01 01:39:00,66.3,60.3,30.00,North,-999,-999.0,-999.0,81,0.00,,,0.00,WSDL version 420,2013-04-01 05:39:00,
2013-04-01 01:44:00,66.2,60.2,30.00,North,-999,-999.0,-999.0,81,0.00,,,0.00,WSDL version 420,2013-04-01 05:44:00,
2013-04-01 01:49:00,66.2,60.2,30.00,North,-999,-999.0,-999.0,81,0.00,,,0.00,WSDL version 420,2013-04-01 05:49:00,
2013-04-01 01:54:00,66.2,60.2,29.97,North,-999,-999.0,-999.0,81,0.00,,,0.00,WSDL version 420,2013-04-01 05:54:00,
2013-04-01 01:59:00,66.2,60.2,29.97,North,-999,-999.0,-999.0,81,0.00,,,0.00,WSDL version 420,2013-04-01 05:59:00,
2013-04-01 02:04:00,66.2,60.3,29.97,North,-999,-999.0,-999.0,82,0.00,,,0.00,WSDL version 420,2013-04-01 06:04:00,
2013-04-01 02:09:00,66.0,60.4,29.97,North,-999,-999.0,-999.0,82,0.00,,,0.00,WSDL version 420,2013-04-01 06:09:00,
2013-04-01 02:14:00,66.0,60.4,29.97,North,-999,-999.0,-999.0,82,0.00,,,0.00,WSDL version 420,2013-04-01 06:14:00,
2013-04-01 02:19:00,65.8,60.3,29.97,North,-999,-999.0,-999.0,82,0.00,,,0.00,WSDL version 420,2013-04-01 06:19:00,
2013-04-01 02:24:00,65.8,60.3,29.97,North,-999,-999.0,-999.0,82,0.00,,,0.00,WSDL version 420,2013-04-01 06:24:00,
2013-04-01 02:29:00,65.8,60.6,29.97,North,-999,-999.0,-999.0,83,0.00,,,0.00,WSDL version 420,2013-04-01 06:29:00,
2013-04-01 02:34:00,65.8,60.7,29.97,North,-999,-999.0,-999.0,83,0.00,,,0.00,WSDL version 420,2013-04-01 06:34:00,
2013-04-01 02:39:00,65.8,60.7,29.97,North,-999,-999.0,-999.0,83,0.00,,,0.00,WSDL version 420,2013-04-01 06:39:00,
2013-04-01 02:44:00,65.7,60.5,29.97,North,-999,-999.0,-999.0,83,0.00,,,0.00,WSDL version 420,2013-04-01 06:44:00,
2013-04-01 02:49:00,65.7,60.5,29.97,North,-999,-999.0,-999.0,83,0.00,,,0.00,WSDL version 420,2013-04-01 06:49:00,
2013-04-01 02:54:00,65.7,60.5,29.97,North,-999,-999.0,-999.0,83,0.00,,,0.00,WSDL version 420,2013-04-01 06:54:00,
2013-04-01 02:59:00,65.7,60.5,29.97,North,-999,-999.0,-999.0,83,0.00,,,0.00,WSDL version 420,2013-04-01 06:59:00,
2013-04-01 03:04:00,65.7,60.5,29.97,North,-999,-999.0,-999.0,83,0.00,,,0.00,WSDL version 420,2013-04-01 07:04:00,
2013-04-01 03:09:00,65.7,60.5,29.97,North,-999,-999.0,-999.0,83,0.00,,,0.00,WSDL version 420,2013-04-01 07:09:00,
2013-04-01 03:14:00,65.7,60.6,29.97,North,-999,-999.0,-999.0,84,0.00,,,0.00,WSDL version 420,2013-04-01 07:14:00,
2013-04-01 03:19:00,65.8,61.0,29.97,North,-999,-999.0,-999.0,84,0.00,,,0.00,WSDL version 420,2013-04-01 07:19:00,
2013-04-01 03:24:00,65.8,61.0,29.97,North,-999,-999.0,-999.0,84,0.00,,,0.00,WSDL version 420,2013-04-01 07:24:00,
2013-04-01 03:29:00,65.8,61.0,29.97,North,-999,-999.0,-999.0,84,0.00,,,0.00,WSDL version 420,2013-04-01 07:29:00,
2013-04-01 03:34:00,65.8,61.0,29.97,North,-999,-999.0,-999.0,84,0.00,,,0.00,WSDL version 420,2013-04-01 07:34:00,
2013-04-01 03:39:00,65.8,61.0,29.97,North,-999,-999.0,-999.0,84,0.00,,,0.00,WSDL version 420,2013-04-01 07:39:00,
2013-04-01 03:44:00,65.8,61.4,29.97,North,-999,-999.0,-999.0,86,0.00,,,0.00,WSDL version 420,2013-04-01 07:44:00,
2013-04-01 03:49:00,65.8,61.4,29.97,North,-999,-999.0,-999.0,86,0.00,,,0.00,WSDL version 420,2013-04-01 07:49:00,
2013-04-01 03:54:00,65.8,61.4,29.97,North,-999,-999.0,-999.0,86,0.00,,,0.00,WSDL version 420,2013-04-01 07:54:00,
2013-04-01 03:59:00,65.7,61.3,29.97,North,-999,-999.0,-999.0,86,0.00,,,0.00,WSDL version 420,2013-04-01 07:59:00,
2013-04-01 04:04:00,65.7,61.2,29.97,North,-999,-999.0,-999.0,86,0.00,,,0.00,WSDL version 420,2013-04-01 08:04:00,
2013-04-01 04:09:00,65.6,61.1,29.97,North,-999,-999.0,-999.0,86,0.00,,,0.00,WSDL version 420,2013-04-01 08:09:00,
2013-04-01 04:14:00,65.4,61.0,29.97,North,-999,-999.0,-999.0,86,0.00,,,0.00,WSDL version 420,2013-04-01 08:14:00,
2013-04-01 04:19:00,65.3,60.9,29.97,North,-999,-999.0,-999.0,86,0.00,,,0.00,WSDL version 420,2013-04-01 08:19:00,
2013-04-01 04:24:00,65.1,60.7,29.94,North,-999,-999.0,-999.0,86,0.00,,,0.00,WSDL version 420,2013-04-01 08:24:00,
2013-04-01 04:29:00,65.1,60.7,29.94,North,-999,-999.0,-999.0,86,0.00,,,0.00,WSDL version 420,2013-04-01 08:29:00,
2013-04-01 04:34:00,65.0,60.6,29.94,North,-999,-999.0,-999.0,86,0.00,,,0.00,WSDL version 420,2013-04-01 08:34:00,
2013-04-01 04:39:00,64.9,60.8,29.94,North,-999,-999.0,-999.0,87,0.00,,,0.00,WSDL version 420,2013-04-01 08:39:00,
2013-04-01 04:44:00,64.9,60.8,29.94,North,-999,-999.0,-999.0,87,0.00,,,0.00,WSDL version 420,2013-04-01 08:44:00,
2013-04-01 04:49:00,64.8,60.7,29.94,North,-999,-999.0,-999.0,87,0.00,,,0.00,WSDL version 420,2013-04-01 08:49:00,
2013-04-01 04:54:00,64.8,60.7,29.94,North,-999,-999.0,-999.0,87,0.00,,,0.00,WSDL version 420,2013-04-01 08:54:00,
2013-04-01 04:59:00,64.8,60.7,29.94,North,-999,-999.0,-999.0,87,0.00,,,0.00,WSDL version 420,2013-04-01 08:59:00,
2013-04-01 05:04:00,64.7,60.6,29.94,North,-999,-999.0,-999.0,87,0.00,,,0.00,WSDL version 420,2013-04-01 09:04:00,
2013-04-01 05:09:00,64.6,60.5,29.94,North,-999,-999.0,-999.0,87,0.00,,,0.00,WSDL version 420,2013-04-01 09:09:00,
2013-04-01 05:14:00,64.6,60.5,29.94,North,-999,-999.0,-999.0,87,0.00,,,0.00,WSDL version 420,2013-04-01 09:14:00,
2013-04-01 05:19:00,64.4,60.3,29.94,North,-999,-999.0,-999.0,87,0.00,,,0.00,WSDL version 420,2013-04-01 09:19:00,
2013-04-01 05:24:00,64.3,60.2,29.94,North,-999,-999.0,-999.0,87,0.00,,,0.00,WSDL version 420,2013-04-01 09:24:00,
2013-04-01 05:30:00,64.2,60.1,29.94,North,-999,-999.0,-999.0,87,0.00,,,0.00,WSDL version 420,2013-04-01 09:30:00,
2013-04-01 05:39:00,63.9,59.8,29.91,North,-999,-999.0,-999.0,87,0.00,,,0.00,WSDL version 420,2013-04-01 09:39:00,
2013-04-01 05:44:00,63.9,59.8,29.91,North,-999,-999.0,-999.0,87,0.00,,,0.00,WSDL version 420,2013-04-01 09:44:00,
2013-04-01 05:49:00,63.9,59.9,29.91,North,-999,-999.0,-999.0,88,0.00,,,0.00,WSDL version 420,2013-04-01 09:49:00,
2013-04-01 05:54:00,63.9,60.2,29.94,North,-999,-999.0,-999.0,88,0.00,,,0.00,WSDL version 420,2013-04-01 09:54:00,
2013-04-01 05:59:00,63.9,60.2,29.94,North,-999,-999.0,-999.0,88,0.00,,,0.00,WSDL version 420,2013-04-01 09:59:00,
2013-04-01 06:04:00,63.7,60.0,29.94,North,-999,-999.0,-999.0,88,0.00,,,0.00,WSDL version 420,2013-04-01 10:04:00,
2013-04-01 06:09:00,63.7,60.0,29.94,North,-999,-999.0,-999.0,88,0.00,,,0.00,WSDL version 420,2013-04-01 10:09:00,
2013-04-01 06:14:00,63.7,60.0,29.94,North,-999,-999.0,-999.0,88,0.00,,,0.00,WSDL version 420,2013-04-01 10:14:00,
2013-04-01 06:19:00,63.7,60.0,29.94,North,-999,-999.0,-999.0,88,0.00,,,0.00,WSDL version 420,2013-04-01 10:19:00,
2013-04-01 06:24:00,63.8,60.3,29.94,North,-999,-999.0,-999.0,89,0.00,,,0.00,WSDL version 420,2013-04-01 10:24:00,
2013-04-01 06:29:00,63.7,60.1,29.94,North,-999,-999.0,-999.0,88,0.00,,,0.00,WSDL version 420,2013-04-01 10:29:00,
2013-04-01 06:34:00,63.6,59.9,29.94,North,-999,-999.0,-999.0,88,0.00,,,0.00,WSDL version 420,2013-04-01 10:34:00,
2013-04-01 06:39:00,64.0,60.5,29.94,North,-999,-999.0,-999.0,89,0.00,,,0.00,WSDL version 420,2013-04-01 10:39:00,
2013-04-01 06:44:00,64.1,61.0,29.94,North,-999,-999.0,-999.0,90,0.00,,,0.00,WSDL version 420,2013-04-01 10:44:00,
2013-04-01 06:49:00,64.3,61.3,29.94,North,-999,-999.0,-999.0,90,0.00,,,0.00,WSDL version 420,2013-04-01 10:49:00,
2013-04-01 06:54:00,64.1,60.8,29.97,North,-999,-999.0,-999.0,89,0.00,,,0.00,WSDL version 420,2013-04-01 10:54:00,
2013-04-01 06:59:00,63.9,60.6,29.97,North,-999,-999.0,-999.0,89,0.00,,,0.00,WSDL version 420,2013-04-01 10:59:00,
2013-04-01 07:04:00,63.9,60.5,29.97,SSE,158,0.0,0.0,89,0.00,,,0.00,WSDL version 420,2013-04-01 11:04:00,
2013-04-01 07:09:00,63.9,60.5,29.97,SSE,158,0.0,0.0,89,0.00,,,0.00,WSDL version 420,2013-04-01 11:09:00,
2013-04-01 07:14:00,64.0,61.0,29.97,SSE,158,0.0,0.0,90,0.00,,,0.00,WSDL version 420,2013-04-01 11:14:00,
2013-04-01 07:19:00,64.2,61.2,29.97,North,0,0.0,0.0,90,0.00,,,0.00,WSDL version 420,2013-04-01 11:19:00,
2013-04-01 07:24:00,64.3,61.3,29.97,SSE,158,0.0,0.0,90,0.00,,,0.00,WSDL version 420,2013-04-01 11:24:00,
2013-04-01 07:29:00,64.4,61.4,29.97,North,0,0.0,0.0,90,0.00,,,0.00,WSDL version 420,2013-04-01 11:29:00,
2013-04-01 07:34:00,64.6,61.8,29.97,North,0,0.0,0.0,91,0.00,,,0.00,WSDL version 420,2013-04-01 11:34:00,
2013-04-01 07:39:00,64.9,62.2,30.00,North,-999,-999.0,-999.0,91,0.00,,,0.00,WSDL version 420,2013-04-01 11:39:00,
2013-04-01 07:44:00,65.1,62.5,30.00,North,-999,-999.0,-999.0,91,0.00,,,0.00,WSDL version 420,2013-04-01 11:44:00,
2013-04-01 07:49:00,65.4,62.7,30.00,North,-999,-999.0,-999.0,91,0.00,,,0.00,WSDL version 420,2013-04-01 11:49:00,
2013-04-01 07:54:00,65.7,63.1,30.00,North,-999,-999.0,-999.0,91,0.00,,,0.00,WSDL version 420,2013-04-01 11:54:00,
2013-04-01 07:59:00,65.9,63.2,30.00,North,-999,-999.0,-999.0,91,0.00,,,0.00,WSDL version 420,2013-04-01 11:59:00,
2013-04-01 08:04:00,66.2,63.5,30.00,North,-999,-999.0,-999.0,91,0.00,,,0.00,WSDL version 420,2013-04-01 12:04:00,
2013-04-01 08:09:00,66.5,63.5,29.97,North,-999,-999.0,-999.0,90,0.00,,,0.00,WSDL version 420,2013-04-01 12:09:00,
2013-04-01 08:14:00,66.9,63.8,29.97,North,-999,-999.0,-999.0,90,0.00,,,0.00,WSDL version 420,2013-04-01 12:14:00,
2013-04-01 08:19:00,67.1,64.0,29.97,North,-999,-999.0,-999.0,90,0.00,,,0.00,WSDL version 420,2013-04-01 12:19:00,
2013-04-01 08:24:00,67.5,64.4,30.00,North,-999,-999.0,-999.0,90,0.00,,,0.00,WSDL version 420,2013-04-01 12:24:00,
2013-04-01 08:29:00,67.9,65.0,30.00,North,-999,-999.0,-999.0,90,0.00,,,0.00,WSDL version 420,2013-04-01 12:29:00,
2013-04-01 08:34:00,68.3,65.3,30.00,North,-999,-999.0,-999.0,90,0.00,,,0.00,WSDL version 420,2013-04-01 12:34:00,
2013-04-01 08:39:00,68.5,65.5,30.00,North,-999,-999.0,-999.0,90,0.00,,,0.00,WSDL version 420,2013-04-01 12:39:00,
2013-04-01 08:44:00,68.7,65.3,30.00,North,-999,-999.0,-999.0,89,0.00,,,0.00,WSDL version 420,2013-04-01 12:44:00,
2013-04-01 08:49:00,69.3,65.8,30.00,North,-999,-999.0,-999.0,89,0.00,,,0.00,WSDL version 420,2013-04-01 12:49:00,
2013-04-01 08:54:00,70.2,66.9,29.97,SSE,158,0.9,0.0,90,0.00,,,0.00,WSDL version 420,2013-04-01 12:54:00,
2013-04-01 08:59:00,71.2,68.1,29.97,SSE,158,0.9,0.0,89,0.00,,,0.00,WSDL version 420,2013-04-01 12:59:00,
2013-04-01 09:04:00,72.1,68.2,29.97,SSE,158,0.9,0.0,88,0.00,,,0.00,WSDL version 420,2013-04-01 13:04:00,
2013-04-01 09:09:00,72.5,68.5,30.00,North,0,0.0,0.0,86,0.00,,,0.00,WSDL version 420,2013-04-01 13:09:00,
2013-04-01 09:14:00,72.5,68.0,30.00,South,180,2.0,4.3,86,0.00,,,0.00,WSDL version 420,2013-04-01 13:14:00,
2013-04-01 09:19:00,72.8,67.8,30.00,South,188,2.0,4.3,84,0.00,,,0.00,WSDL version 420,2013-04-01 13:19:00,
2013-04-01 09:24:00,73.4,68.4,30.00,South,180,2.7,4.3,84,0.00,,,0.00,WSDL version 420,2013-04-01 13:24:00,
2013-04-01 09:29:00,73.9,68.6,30.00,SE,146,2.9,3.8,83,0.00,,,0.00,WSDL version 420,2013-04-01 13:29:00,
2013-04-01 09:34:00,74.1,68.1,30.00,South,180,2.2,3.8,81,0.00,,,0.00,WSDL version 420,2013-04-01 13:34:00,
2013-04-01 09:44:00,74.7,68.1,30.00,South,180,1.6,4.5,80,0.00,,,0.00,WSDL version 420,2013-04-01 13:44:00,
2013-04-01 09:49:00,75.1,68.3,30.00,South,180,1.6,4.5,79,0.00,,,0.00,WSDL version 420,2013-04-01 13:49:00,
2013-04-01 09:54:00,75.6,68.3,30.00,South,180,2.9,4.7,78,0.00,,,0.00,WSDL version 420,2013-04-01 13:54:00,
2013-04-01 09:59:00,76.2,68.9,30.00,South,180,3.6,4.7,78,0.00,,,0.00,WSDL version 420,2013-04-01 13:59:00,
2013-04-01 10:04:00,77.0,69.1,30.00,South,188,4.3,4.7,76,0.00,,,0.00,WSDL version 420,2013-04-01 14:04:00,
2013-04-01 10:09:00,77.4,68.6,30.00,SSW,203,5.4,5.4,74,0.00,,,0.00,WSDL version 420,2013-04-01 14:09:00,
2013-04-01 10:14:00,77.4,68.1,30.00,SSW,203,5.4,5.4,72,0.00,,,0.00,WSDL version 420,2013-04-01 14:14:00,
2013-04-01 10:19:00,77.8,67.8,30.00,SSW,203,5.4,5.4,70,0.00,,,0.00,WSDL version 420,2013-04-01 14:19:00,
2013-04-01 10:24:00,78.4,67.7,30.00,South,180,3.8,5.6,69,0.00,,,0.00,WSDL version 420,2013-04-01 14:24:00,
2013-04-01 10:29:00,79.1,68.1,30.00,South,180,3.8,5.6,69,0.00,,,0.00,WSDL version 420,2013-04-01 14:29:00,
2013-04-01 10:34:00,79.2,67.4,30.00,South,180,3.6,5.6,67,0.00,,,0.00,WSDL version 420,2013-04-01 14:34:00,
2013-04-01 10:39:00,79.3,67.4,30.00,SSE,158,4.5,5.6,67,0.00,,,0.00,WSDL version 420,2013-04-01 14:39:00,
2013-04-01 10:44:00,80.1,68.2,30.00,SE,135,3.1,5.6,67,0.00,,,0.00,WSDL version 420,2013-04-01 14:44:00,
2013-04-01 10:49:00,81.1,68.3,30.00,WSW,248,3.1,5.6,64,0.00,,,0.00,WSDL version 420,2013-04-01 14:49:00,
2013-04-01 10:54:00,81.5,67.1,30.00,SSE,158,4.7,6.5,60,0.00,,,0.00,WSDL version 420,2013-04-01 14:54:00,
2013-04-01 10:59:00,81.9,66.1,30.00,South,191,3.9,6.5,58,0.00,,,0.00,WSDL version 420,2013-04-01 14:59:00,
2013-04-01 11:04:00,82.5,66.5,30.00,South,180,4.3,6.5,58,0.00,,,0.00,WSDL version 420,2013-04-01 15:04:00,
2013-04-01 11:09:00,82.1,65.6,29.97,SSE,158,2.7,6.3,58,0.00,,,0.00,WSDL version 420,2013-04-01 15:09:00,
2013-04-01 11:14:00,82.4,65.9,29.97,East,90,2.5,6.3,57,0.00,,,0.00,WSDL version 420,2013-04-01 15:14:00,
2013-04-01 11:19:00,82.1,65.0,29.97,North,360,3.4,5.8,56,0.00,,,0.00,WSDL version 420,2013-04-01 15:19:00,
2013-04-01 11:24:00,81.9,63.3,30.00,ESE,113,5.6,5.6,53,0.00,,,0.00,WSDL version 420,2013-04-01 15:24:00,
2013-04-01 11:29:00,81.6,62.3,30.00,ESE,113,5.6,5.6,52,0.00,,,0.00,WSDL version 420,2013-04-01 15:29:00,
2013-04-01 11:34:00,81.4,61.7,30.00,South,191,4.9,7.8,50,0.00,,,0.00,WSDL version 420,2013-04-01 15:34:00,
2013-04-01 11:39:00,81.5,61.6,30.00,South,180,2.3,7.8,51,0.00,,,0.00,WSDL version 420,2013-04-01 15:39:00,
2013-04-01 11:44:00,81.7,61.1,30.00,North,360,2.7,6.5,50,0.00,,,0.00,WSDL version 420,2013-04-01 15:44:00,
2013-04-01 11:50:00,82.5,61.0,30.00,SE,146,2.9,6.5,47,0.00,,,0.00,WSDL version 420,2013-04-01 15:50:00,
2013-04-01 11:59:00,83.5,61.2,30.00,WSW,239,2.9,7.8,47,0.00,,,0.00,WSDL version 420,2013-04-01 15:59:00,
2013-04-01 12:04:00,84.4,61.7,30.00,SW,225,5.1,9.2,45,0.00,,,0.00,WSDL version 420,2013-04-01 16:04:00,
2013-04-01 12:09:00,84.7,61.3,30.00,SSE,158,3.4,9.2,45,0.00,,,0.00,WSDL version 420,2013-04-01 16:09:00,
2013-04-01 12:14:00,84.6,60.5,30.00,SSW,210,3.2,5.6,45,0.00,,,0.00,WSDL version 420,2013-04-01 16:14:00,
2013-04-01 12:19:00,85.0,60.9,30.00,NW,325,2.5,5.8,43,0.00,,,0.00,WSDL version 420,2013-04-01 16:19:00,
2013-04-01 12:24:00,85.2,59.3,30.00,South,185,2.5,5.8,41,0.00,,,0.00,WSDL version 420,2013-04-01 16:24:00,
2013-04-01 12:29:00,84.6,58.3,30.00,West,270,1.1,3.4,41,0.00,,,0.00,WSDL version 420,2013-04-01 16:29:00,
2013-04-01 12:34:00,85.1,58.8,30.00,South,184,2.1,6.3,41,0.00,,,0.00,WSDL version 420,2013-04-01 16:34:00,
2013-04-01 12:39:00,86.0,58.9,29.97,WSW,257,2.3,9.6,39,0.00,,,0.00,WSDL version 420,2013-04-01 16:39:00,
2013-04-01 12:44:00,86.0,58.2,29.97,SSW,203,2.9,9.6,39,0.00,,,0.00,WSDL version 420,2013-04-01 16:44:00,
2013-04-01 12:49:00,86.3,58.3,29.97,ENE,72,2.5,4.3,38,0.00,,,0.00,WSDL version 420,2013-04-01 16:49:00,
2013-04-01 12:54:00,87.0,58.6,29.97,WNW,293,1.6,4.3,38,0.00,,,0.00,WSDL version 420,2013-04-01 16:54:00,
2013-04-01 12:59:00,86.4,57.8,29.97,West,276,2.0,2.9,38,0.00,,,0.00,WSDL version 420,2013-04-01 16:59:00,
2013-04-01 13:04:00,85.3,56.3,29.97,North,360,2.1,4.3,38,0.00,,,0.00,WSDL version 420,2013-04-01 17:04:00,
2013-04-01 13:09:00,85.2,57.1,29.97,NW,309,3.9,6.9,38,0.00,,,0.00,WSDL version 420,2013-04-01 17:09:00,
2013-04-01 13:15:00,86.2,58.1,29.97,SSE,154,3.5,7.4,38,0.00,,,0.00,WSDL version 420,2013-04-01 17:15:00,
2013-04-01 13:24:00,86.9,57.7,29.97,SSW,209,1.3,7.2,38,0.00,,,0.00,WSDL version 420,2013-04-01 17:24:00,
2013-04-01 13:29:00,87.2,57.4,29.97,South,180,4.3,8.1,35,0.00,,,0.00,WSDL version 420,2013-04-01 17:29:00,
2013-04-01 13:34:00,87.1,56.4,29.97,SSW,197,4.0,8.1,36,0.00,,,0.00,WSDL version 420,2013-04-01 17:34:00,
2013-04-01 13:39:00,87.4,57.2,29.94,ENE,68,3.0,6.5,36,0.00,,,0.00,WSDL version 420,2013-04-01 17:39:00,
2013-04-01 13:44:00,87.7,56.7,29.94,SW,214,4.3,10.1,34,0.00,,,0.00,WSDL version 420,2013-04-01 17:44:00,
2013-04-01 13:49:00,87.8,56.1,29.94,SE,138,3.4,10.1,35,0.00,,,0.00,WSDL version 420,2013-04-01 17:49:00,
2013-04-01 13:54:00,87.8,56.8,29.91,SW,225,2.5,5.6,35,0.00,,,0.00,WSDL version 420,2013-04-01 17:54:00,
2013-04-01 14:04:00,88.1,56.6,29.91,SSW,193,3.6,6.3,34,0.00,,,0.00,WSDL version 420,2013-04-01 18:04:00,
2013-04-01 14:09:00,88.0,56.1,29.91,SSW,207,4.2,6.3,34,0.00,,,0.00,WSDL version 420,2013-04-01 18:09:00,
2013-04-01 14:14:00,88.3,56.7,29.91,West,266,3.2,6.0,35,0.00,,,0.00,WSDL version 420,2013-04-01 18:14:00,
2013-04-01 14:19:00,88.1,56.5,29.91,SW,234,0.0,5.6,35,0.00,,,0.00,WSDL version 420,2013-04-01 18:19:00,
2013-04-01 14:24:00,87.8,56.4,29.94,WSW,255,0.4,2.2,35,0.00,,,0.00,WSDL version 420,2013-04-01 18:24:00,
2013-04-01 14:29:00,87.8,56.8,29.94,NNW,334,1.9,3.4,35,0.00,,,0.00,WSDL version 420,2013-04-01 18:29:00,
2013-04-01 14:34:00,87.7,55.9,29.94,SW,218,2.2,4.7,34,0.00,,,0.00,WSDL version 420,2013-04-01 18:34:00,
2013-04-01 14:39:00,87.9,56.3,29.94,West,263,2.0,7.6,35,0.00,,,0.00,WSDL version 420,2013-04-01 18:39:00,
2013-04-01 14:44:00,87.9,55.5,29.94,WSW,255,1.6,7.6,34,0.00,,,0.00,WSDL version 420,2013-04-01 18:44:00,
2013-04-01 14:49:00,87.6,55.4,29.94,West,270,1.5,4.9,34,0.00,,,0.00,WSDL version 420,2013-04-01 18:49:00,
2013-04-01 14:54:00,87.1,55.8,29.94,East,90,2.0,4.9,35,0.00,,,0.00,WSDL version 420,2013-04-01 18:54:00,
2013-04-01 14:59:00,86.5,55.9,29.94,NNW,338,2.9,2.9,35,0.00,,,0.00,WSDL version 420,2013-04-01 18:59:00,
2013-04-01 15:04:00,86.0,55.9,29.94,West,281,1.2,2.5,36,0.00,,,0.00,WSDL version 420,2013-04-01 19:04:00,
2013-04-01 15:09:00,86.9,57.7,29.94,NW,323,1.8,3.1,37,0.00,,,0.00,WSDL version 420,2013-04-01 19:09:00,
2013-04-01 15:14:00,87.7,58.4,29.94,SSW,203,2.0,3.1,37,0.00,,,0.00,WSDL version 420,2013-04-01 19:14:00,
2013-04-01 15:19:00,87.9,57.6,29.94,West,270,2.2,2.5,36,0.00,,,0.00,WSDL version 420,2013-04-01 19:19:00,
2013-04-01 15:29:00,86.4,55.3,29.91,SW,222,2.3,3.6,35,0.00,,,0.00,WSDL version 420,2013-04-01 19:29:00,
2013-04-01 15:34:00,87.4,56.8,29.91,WNW,288,3.0,6.5,34,0.00,,,0.00,WSDL version 420,2013-04-01 19:34:00,
2013-04-01 15:39:00,88.1,56.8,29.91,WNW,299,1.7,6.5,34,0.00,,,0.00,WSDL version 420,2013-04-01 19:39:00,
2013-04-01 15:44:00,88.5,56.8,29.91,South,180,2.5,4.0,34,0.00,,,0.00,WSDL version 420,2013-04-01 19:44:00,
2013-04-01 15:49:00,87.7,55.1,29.91,NE,45,1.6,4.0,33,0.00,,,0.00,WSDL version 420,2013-04-01 19:49:00,
2013-04-01 15:54:00,86.7,54.4,29.91,WNW,293,2.0,4.0,33,0.00,,,0.00,WSDL version 420,2013-04-01 19:54:00,
2013-04-01 15:59:00,85.8,54.5,29.91,South,173,0.9,3.1,35,0.00,,,0.00,WSDL version 420,2013-04-01 19:59:00,
2013-04-01 16:04:00,86.1,54.9,29.91,NNW,340,2.1,4.9,34,0.00,,,0.00,WSDL version 420,2013-04-01 20:04:00,
2013-04-01 16:09:00,87.7,56.9,29.88,NNW,341,1.9,4.9,35,0.00,,,0.00,WSDL version 420,2013-04-01 20:09:00,
2013-04-01 16:14:00,88.6,57.0,29.88,West,270,2.3,3.6,34,0.00,,,0.00,WSDL version 420,2013-04-01 20:14:00,
2013-04-01 16:19:00,87.7,55.6,29.88,North,360,2.2,3.6,34,0.00,,,0.00,WSDL version 420,2013-04-01 20:19:00,
2013-04-01 16:24:00,86.9,55.0,29.88,SW,236,1.5,2.9,34,0.00,,,0.00,WSDL version 420,2013-04-01 20:24:00,
2013-04-01 16:29:00,86.4,54.2,29.88,West,270,2.0,2.9,33,0.00,,,0.00,WSDL version 420,2013-04-01 20:29:00,
2013-04-01 16:39:00,85.5,53.7,29.88,SSE,158,2.2,4.0,34,0.00,,,0.00,WSDL version 420,2013-04-01 20:39:00,
2013-04-01 16:44:00,86.7,55.2,29.88,NNW,341,1.8,4.0,34,0.00,,,0.00,WSDL version 420,2013-04-01 20:44:00,
2013-04-01 16:49:00,87.1,54.8,29.88,East,90,3.6,4.0,33,0.00,,,0.00,WSDL version 420,2013-04-01 20:49:00,
2013-04-01 16:54:00,86.9,54.3,29.85,West,270,1.6,2.5,33,0.00,,,0.00,WSDL version 420,2013-04-01 20:54:00,
2013-04-01 16:59:00,86.0,53.6,29.85,West,270,1.6,2.5,33,0.00,,,0.00,WSDL version 420,2013-04-01 20:59:00,
2013-04-01 17:04:00,85.3,53.8,29.85,West,270,1.6,2.2,34,0.00,,,0.00,WSDL version 420,2013-04-01 21:04:00,
2013-04-01 17:09:00,85.2,54.3,29.88,West,270,1.6,2.2,35,0.00,,,0.00,WSDL version 420,2013-04-01 21:09:00,
2013-04-01 17:14:00,86.2,54.9,29.88,North,0,0.0,2.2,34,0.00,,,0.00,WSDL version 420,2013-04-01 21:14:00,
2013-04-01 17:19:00,86.0,55.0,29.88,SSE,158,1.1,0.0,35,0.00,,,0.00,WSDL version 420,2013-04-01 21:19:00,
2013-04-01 17:24:00,85.4,54.2,29.88,SSE,158,1.1,0.0,35,0.00,,,0.00,WSDL version 420,2013-04-01 21:24:00,
2013-04-01 17:29:00,85.0,54.3,29.88,SSE,158,1.1,0.0,35,0.00,,,0.00,WSDL version 420,2013-04-01 21:29:00,
2013-04-01 17:34:00,84.4,53.8,29.88,North,0,0.0,0.0,35,0.00,,,0.00,WSDL version 420,2013-04-01 21:34:00,
2013-04-01 17:39:00,85.0,55.1,29.88,SE,135,2.0,2.5,36,0.00,,,0.00,WSDL version 420,2013-04-01 21:39:00,
2013-04-01 17:44:00,86.1,55.9,29.88,West,270,3.4,3.4,35,0.00,,,0.00,WSDL version 420,2013-04-01 21:44:00,
2013-04-01 17:54:00,86.0,55.2,29.88,NW,315,1.7,3.1,35,0.00,,,0.00,WSDL version 420,2013-04-01 21:54:00,
2013-04-01 17:59:00,85.6,54.9,29.88,North,360,0.0,3.1,35,0.00,,,0.00,WSDL version 420,2013-04-01 21:59:00,
2013-04-01 18:04:00,85.2,54.5,29.88,West,270,1.3,3.1,35,0.00,,,0.00,WSDL version 420,2013-04-01 22:04:00,
2013-04-01 18:09:00,84.7,54.1,29.88,West,270,1.3,2.2,35,0.00,,,0.00,WSDL version 420,2013-04-01 22:09:00,
2013-04-01 18:14:00,84.4,54.0,29.88,West,270,1.3,2.2,36,0.00,,,0.00,WSDL version 420,2013-04-01 22:14:00,
2013-04-01 18:19:00,83.9,53.9,29.88,North,0,0.0,2.2,36,0.00,,,0.00,WSDL version 420,2013-04-01 22:19:00,
2013-04-01 18:24:00,83.4,53.7,29.88,North,-999,-999.0,-999.0,36,0.00,,,0.00,WSDL version 420,2013-04-01 22:24:00,
2013-04-01 18:29:00,83.1,53.4,29.88,North,-999,-999.0,-999.0,36,0.00,,,0.00,WSDL version 420,2013-04-01 22:29:00,
2013-04-01 18:34:00,82.8,53.3,29.88,North,-999,-999.0,-999.0,37,0.00,,,0.00,WSDL version 420,2013-04-01 22:34:00,
2013-04-01 18:39:00,82.5,52.9,29.88,North,-999,-999.0,-999.0,36,0.00,,,0.00,WSDL version 420,2013-04-01 22:39:00,
2013-04-01 18:44:00,82.2,53.3,29.88,North,-999,-999.0,-999.0,37,0.00,,,0.00,WSDL version 420,2013-04-01 22:44:00,
2013-04-01 18:49:00,81.9,53.1,29.88,North,-999,-999.0,-999.0,37,0.00,,,0.00,WSDL version 420,2013-04-01 22:49:00,
2013-04-01 18:59:00,81.3,53.3,29.88,North,360,0.0,0.0,38,0.00,,,0.00,WSDL version 420,2013-04-01 22:59:00,
2013-04-01 19:04:00,81.1,53.6,29.88,North,360,0.0,0.0,39,0.00,,,0.00,WSDL version 420,2013-04-01 23:04:00,
2013-04-01 19:09:00,80.6,53.6,29.91,SSE,158,0.0,0.0,40,0.00,,,0.00,WSDL version 420,2013-04-01 23:09:00,
2013-04-01 19:14:00,80.3,53.8,29.91,SSE,158,0.0,0.0,40,0.00,,,0.00,WSDL version 420,2013-04-01 23:14:00,
2013-04-01 19:19:00,80.1,53.6,29.91,SSE,158,0.0,0.0,40,0.00,,,0.00,WSDL version 420,2013-04-01 23:19:00,
2013-04-01 19:29:00,79.4,53.0,29.91,North,0,0.0,0.0,40,0.00,,,0.00,WSDL version 420,2013-04-01 23:29:00,
2013-04-01 19:34:00,79.1,52.9,29.91,North,-999,-999.0,-999.0,41,0.00,,,0.00,WSDL version 420,2013-04-01 23:34:00,
2013-04-01 19:39:00,78.8,53.1,29.91,North,-999,-999.0,-999.0,41,0.00,,,0.00,WSDL version 420,2013-04-01 23:39:00,
2013-04-01 19:44:00,78.5,52.9,29.91,North,-999,-999.0,-999.0,41,0.00,,,0.00,WSDL version 420,2013-04-01 23:44:00,
2013-04-01 19:49:00,78.2,53.2,29.91,North,-999,-999.0,-999.0,42,0.00,,,0.00,WSDL version 420,2013-04-01 23:49:00,
2013-04-01 19:54:00,77.7,52.8,29.91,WSW,248,0.0,0.0,42,0.00,,,0.00,WSDL version 420,2013-04-01 23:54:00,
2013-04-01 19:59:00,77.2,53.0,29.91,WSW,248,0.0,0.0,43,0.00,,,0.00,WSDL version 420,2013-04-01 23:59:00,
2013-04-01 20:04:00,77.1,52.9,29.91,South,180,0.0,0.0,43,0.00,,,0.00,WSDL version 420,2013-04-02 00:04:00,
2013-04-01 20:09:00,76.7,53.0,29.91,South,180,0.0,0.0,44,0.00,,,0.00,WSDL version 420,2013-04-02 00:09:00,
2013-04-01 20:14:00,76.3,52.8,29.91,South,180,0.0,0.0,44,0.00,,,0.00,WSDL version 420,2013-04-02 00:14:00,
2013-04-01 20:19:00,76.1,53.2,29.91,South,180,0.0,0.0,45,0.00,,,0.00,WSDL version 420,2013-04-02 00:19:00,
2013-04-01 20:24:00,75.8,52.9,29.94,South,180,0.0,0.0,45,0.00,,,0.00,WSDL version 420,2013-04-02 00:24:00,
2013-04-01 20:29:00,75.6,53.4,29.94,North,0,0.0,0.0,46,0.00,,,0.00,WSDL version 420,2013-04-02 00:29:00,
2013-04-01 20:34:00,75.2,53.2,29.94,North,0,0.0,0.0,47,0.00,,,0.00,WSDL version 420,2013-04-02 00:34:00,
2013-04-01 20:39:00,75.1,53.8,29.94,North,-999,-999.0,-999.0,48,0.00,,,0.00,WSDL version 420,2013-04-02 00:39:00,
2013-04-01 20:49:00,74.9,54.3,29.94,SW,225,0.0,0.0,49,0.00,,,0.00,WSDL version 420,2013-04-02 00:49:00,
2013-04-01 20:54:00,74.8,54.5,29.94,SW,225,0.0,0.0,50,0.00,,,0.00,WSDL version 420,2013-04-02 00:54:00,
2013-04-01 20:59:00,74.6,54.7,29.94,SW,225,0.0,0.0,50,0.00,,,0.00,WSDL version 420,2013-04-02 00:59:00,
2013-04-01 21:04:00,74.5,54.6,29.94,SSW,203,0.0,0.0,50,0.00,,,0.00,WSDL version 420,2013-04-02 01:04:00,
2013-04-01 21:09:00,74.5,55.1,29.94,SSW,203,0.0,0.0,51,0.00,,,0.00,WSDL version 420,2013-04-02 01:09:00,
2013-04-01 21:19:00,74.1,55.4,29.94,WNW,293,0.0,0.0,52,0.00,,,0.00,WSDL version 420,2013-04-02 01:19:00,
2013-04-01 21:24:00,74.0,55.3,29.91,WNW,293,0.0,0.0,52,0.00,,,0.00,WSDL version 420,2013-04-02 01:24:00,
2013-04-01 21:29:00,73.9,55.7,29.91,WNW,293,0.0,0.0,53,0.00,,,0.00,WSDL version 420,2013-04-02 01:29:00,
2013-04-01 21:34:00,73.8,55.6,29.91,North,0,0.0,0.0,53,0.00,,,0.00,WSDL version 420,2013-04-02 01:34:00,
2013-04-01 21:39:00,73.7,56.0,29.94,North,0,0.0,0.0,54,0.00,,,0.00,WSDL version 420,2013-04-02 01:39:00,
2013-04-01 21:44:00,73.5,55.8,29.94,North,-999,-999.0,-999.0,54,0.00,,,0.00,WSDL version 420,2013-04-02 01:44:00,
2013-04-01 21:49:00,73.3,56.1,29.94,North,-999,-999.0,-999.0,55,0.00,,,0.00,WSDL version 420,2013-04-02 01:49:00,
2013-04-01 21:59:00,73.0,56.2,29.94,North,-999,-999.0,-999.0,56,0.00,,,0.00,WSDL version 420,2013-04-02 01:59:00,
2013-04-01 22:04:00,73.0,56.3,29.94,North,-999,-999.0,-999.0,56,0.00,,,0.00,WSDL version 420,2013-04-02 02:04:00,
2013-04-01 22:09:00,72.9,56.3,29.94,NW,308,0.0,0.0,56,0.00,,,0.00,WSDL version 420,2013-04-02 02:09:00,
2013-04-01 22:14:00,72.7,56.1,29.94,SSW,210,0.0,0.9,56,0.00,,,0.00,WSDL version 420,2013-04-02 02:14:00,
2013-04-01 22:19:00,72.5,56.0,29.94,SSE,158,0.0,0.9,56,0.00,,,0.00,WSDL version 420,2013-04-02 02:19:00,
2013-04-01 22:24:00,72.4,56.2,29.94,SSE,158,0.0,0.0,57,0.00,,,0.00,WSDL version 420,2013-04-02 02:24:00,
2013-04-01 22:29:00,72.3,56.3,29.94,South,180,0.0,0.0,57,0.00,,,0.00,WSDL version 420,2013-04-02 02:29:00,
2013-04-01 22:40:00,72.0,56.5,29.97,South,180,0.0,0.0,58,0.00,,,0.00,WSDL version 420,2013-04-02 02:40:00,
2013-04-01 22:49:00,71.8,56.8,29.97,SW,225,0.0,0.0,59,0.00,,,0.00,WSDL version 420,2013-04-02 02:49:00,
2013-04-01 22:54:00,71.8,56.9,29.97,SW,225,0.0,0.0,60,0.00,,,0.00,WSDL version 420,2013-04-02 02:54:00,
2013-04-01 22:59:00,71.8,57.2,29.97,South,180,0.0,0.0,60,0.00,,,0.00,WSDL version 420,2013-04-02 02:59:00,
2013-04-01 23:04:00,71.5,57.1,29.97,ESE,113,0.0,2.0,61,0.00,,,0.00,WSDL version 420,2013-04-02 03:04:00,
2013-04-01 23:09:00,71.4,57.2,29.97,ESE,113,0.0,2.0,61,0.00,,,0.00,WSDL version 420,2013-04-02 03:09:00,
2013-04-01 23:14:00,71.2,57.5,29.97,ESE,113,0.0,2.0,62,0.00,,,0.00,WSDL version 420,2013-04-02 03:14:00,
2013-04-01 23:19:00,71.1,57.4,29.97,ESE,113,0.0,2.0,62,0.00,,,0.00,WSDL version 420,2013-04-02 03:19:00,
2013-04-01 23:24:00,70.9,57.2,29.97,SW,225,0.0,2.0,62,0.00,,,0.00,WSDL version 420,2013-04-02 03:24:00,
2013-04-01 23:30:00,70.7,57.4,29.97,SW,225,0.0,0.0,63,0.00,,,0.00,WSDL version 420,2013-04-02 03:30:00,
2013-04-01 23:39:00,70.4,57.5,29.97,South,180,0.0,0.0,64,0.00,,,0.00,WSDL version 420,2013-04-02 03:39:00,
2013-04-01 23:44:00,70.2,57.5,29.97,South,180,0.0,0.0,64,0.00,,,0.00,WSDL version 420,2013-04-02 03:44:00,
2013-04-01 23:49:00,70.0,57.6,29.97,South,180,0.0,0.0,65,0.00,,,0.00,WSDL version 420,2013-04-02 03:49:00,
2013-04-01 23:59:00,69.7,57.7,29.97,SSW,203,0.0,0.0,66,0.00,,,0.00,WSDL version 420,2013-04-02 03:59:00,